Time;durP1;ratioP1;P1;durP2;ratioP2;P2;SDS_P1;SDS_P2;PMS_P1;PMS_P2;Temp;Humidity;BMP_temperature;BMP_pressure;BME280_temperature;BME280_humidity;BME280_pressure;Samples;Min_cycle;Max_cycle;Signal;HPM_P1;HPM_P2
2022/03/11 00:08:44;;;;;;;33.40;15.50;;;;;;;-4.51;54.78;100397.11;432504;1274;108387;-43
2022/03/11 00:18:51;;;;;;;39.80;17.70;;;;;;;-4.44;54.86;100388.92;432521;1274;98033;-41
2022/03/11 00:28:58;;;;;;;42.60;18.40;;;;;;;-4.48;55.03;100383.84;432504;1272;108842;-40
2022/03/11 00:39:05;;;;;;;38.20;18.90;;;;;;;-4.56;55.19;100381.34;432613;1272;97400;-40
2022/03/11 00:49:13;;;;;;;36.70;18.00;;;;;;;-4.63;55.45;100376.60;432413;1272;111087;-41
2022/03/11 00:59:20;;;;;;;36.00;17.00;;;;;;;-4.69;55.77;100374.38;432515;1273;108461;-40
2022/03/11 01:09:27;;;;;;;36.30;16.90;;;;;;;-4.74;55.92;100373.66;432578;1272;97910;-40
2022/03/11 01:19:33;;;;;;;35.40;18.10;;;;;;;-4.84;55.93;100372.20;432515;1272;108860;-40
2022/03/11 01:29:41;;;;;;;31.90;16.00;;;;;;;-4.97;56.32;100367.77;432430;1271;97495;-41
2022/03/11 01:39:48;;;;;;;32.20;16.30;;;;;;;-5.07;56.58;100368.72;432397;1271;111151;-40
2022/03/11 01:49:52;;;;;;;47.50;18.90;;;;;;;-5.17;56.73;100368.41;432442;1272;109151;-42
2022/03/11 02:00:00;;;;;;;45.90;19.90;;;;;;;-5.27;57.08;100369.35;432697;1271;97942;-40
2022/03/11 02:10:09;;;;;;;39.20;18.00;;;;;;;-5.33;57.09;100364.14;432464;1272;109455;-40
2022/03/11 02:20:16;;;;;;;41.10;18.00;;;;;;;-5.45;57.18;100366.04;432347;1271;98076;-40
2022/03/11 02:30:23;;;;;;;46.00;16.50;;;;;;;-5.54;57.37;100370.67;433195;1260;111088;-40
2022/03/11 02:40:32;;;;;;;42.20;17.70;;;;;;;-5.57;57.71;100361.23;432425;1271;108848;-41
2022/03/11 02:50:40;;;;;;;44.50;18.60;;;;;;;-5.58;57.63;100358.71;432562;1271;97910;-40
2022/03/11 03:00:48;;;;;;;39.20;17.90;;;;;;;-5.63;57.79;100364.46;432571;1270;109304;-40
2022/03/11 03:10:55;;;;;;;41.30;18.90;;;;;;;-5.70;57.82;100361.77;432664;1271;97995;-43
2022/03/11 03:21:03;;;;;;;40.70;17.60;;;;;;;-5.86;58.09;100357.20;432487;1271;111144;-40
2022/03/11 03:41:17;;;;;;;32.90;14.40;;;;;;;-6.10;58.56;100360.20;432468;1271;97902;-40
2022/03/11 03:51:22;;;;;;;30.20;14.70;;;;;;;-6.06;58.73;100361.52;432665;1271;108918;-40
2022/03/11 04:01:29;;;;;;;39.50;16.80;;;;;;;-6.11;58.81;100367.65;432566;1270;96675;-39
2022/03/11 04:11:37;;;;;;;31.70;14.20;;;;;;;-6.19;58.90;100372.51;432782;1271;111133;-43
2022/03/11 04:21:44;;;;;;;33.10;15.30;;;;;;;-6.31;59.17;100374.54;432469;1271;109175;-42
2022/03/11 04:31:51;;;;;;;35.50;16.30;;;;;;;-6.36;59.12;100379.45;432571;1271;97995;-40
2022/03/11 04:41:59;;;;;;;53.10;22.40;;;;;;;-6.43;59.38;100367.80;432564;1270;109578;-39
2022/03/11 04:52:11;;;;;;;41.80;19.40;;;;;;;-6.46;59.32;100369.11;432566;1271;97941;-42
2022/03/11 05:02:25;;;;;;;51.10;20.00;;;;;;;-6.51;59.22;100371.13;432622;1271;111128;-40
2022/03/11 05:12:35;;;;;;;49.40;17.40;;;;;;;-6.54;59.22;100366.44;432475;1271;108873;-39
2022/03/11 05:32:49;;;;;;;53.80;17.90;;;;;;;-6.55;59.60;100382.83;432460;1271;108787;-40
2022/03/11 05:42:56;;;;;;;38.80;17.90;;;;;;;-6.40;59.46;100393.20;432431;1271;96925;-40
2022/03/11 05:53:04;;;;;;;35.60;15.40;;;;;;;-6.20;59.59;100390.42;432429;1270;111445;-41
2022/03/11 06:13:18;;;;;;;49.70;21.50;;;;;;;-5.24;59.82;100389.56;432625;1271;96716;-39
2022/03/11 06:23:25;;;;;;;41.70;19.20;;;;;;;-3.91;59.10;100398.92;432471;1271;108832;-42
2022/03/11 06:33:31;;;;;;;31.50;16.10;;;;;;;-3.12;58.05;100404.63;432413;1271;97925;-39
2022/03/11 06:53:44;;;;;;;53.20;20.80;;;;;;;-2.09;56.52;100412.27;432493;1271;108680;-43
2022/03/11 07:03:52;;;;;;;47.00;19.20;;;;;;;-2.00;55.40;100415.77;432614;1271;97916;-39
2022/03/11 07:24:07;;;;;;;45.50;19.60;;;;;;;-2.58;54.86;100427.67;432542;1271;107712;-44
2022/03/11 07:34:16;;;;;;;46.50;19.00;;;;;;;-2.18;54.71;100416.98;432539;1271;96687;-42
2022/03/11 07:44:23;;;;;;;44.90;18.10;;;;;;;-1.70;54.14;100420.08;432594;1271;111147;-40
2022/03/11 07:54:36;;;;;;;36.00;16.20;;;;;;;-1.37;53.88;100424.48;432541;1270;108591;-41
2022/03/11 08:04:44;;;;;;;33.30;13.60;;;;;;;-1.07;52.76;100421.25;432659;1271;97929;-41
2022/03/11 08:24:56;;;;;;;21.60;9.80;;;;;;;-0.59;50.11;100416.11;432523;1271;111152;-43
2022/03/11 08:35:04;;;;;;;20.20;8.60;;;;;;;-0.10;49.07;100416.10;432778;1271;109150;-41
2022/03/11 08:55:24;;;;;;;16.70;7.40;;;;;;;0.22;47.37;100411.66;432756;1271;97916;-42
2022/03/11 09:05:32;;;;;;;17.30;7.90;;;;;;;0.23;45.28;100414.23;428609;1271;5567200;-40
2022/03/11 09:15:39;;;;;;;20.20;9.70;;;;;;;0.48;45.48;100398.84;432556;1271;108817;-40
2022/03/11 09:25:58;;;;;;;18.50;7.40;;;;;;;0.89;45.20;100394.53;432595;1270;97507;-40
2022/03/11 09:36:05;;;;;;;15.50;8.00;;;;;;;1.19;44.45;100388.38;432607;1271;109675;-39
2022/03/11 09:46:11;;;;;;;18.50;8.10;;;;;;;1.22;43.22;100379.60;432628;1271;109467;-40
2022/03/11 09:56:20;;;;;;;12.80;6.20;;;;;;;1.32;41.38;100380.89;432679;1271;108966;-41
2022/03/11 10:06:38;;;;;;;12.10;6.50;;;;;;;1.21;40.96;100378.68;432643;1271;97958;-43
2022/03/11 10:16:45;;;;;;;12.20;6.70;;;;;;;1.40;40.29;100377.92;432684;1271;110103;-40
2022/03/11 10:26:55;;;;;;;10.40;5.70;;;;;;;1.52;39.21;100380.41;432606;1271;109687;-40
2022/03/11 10:37:04;;;;;;;12.20;5.40;;;;;;;1.65;38.57;100377.77;432349;1271;108726;-40
2022/03/11 10:47:22;;;;;;;12.70;5.30;;;;;;;1.74;37.53;100378.75;432561;1271;96789;-41
2022/03/11 10:57:39;;;;;;;12.20;5.70;;;;;;;1.80;37.02;100373.31;432722;1270;110078;-40
2022/03/11 11:07:46;;;;;;;18.40;6.70;;;;;;;2.11;37.08;100360.73;432445;1271;107836;-42
2022/03/11 11:17:55;;;;;;;9.80;4.50;;;;;;;2.47;37.00;100342.29;432668;1271;108697;-40
2022/03/11 11:28:05;;;;;;;8.10;4.50;;;;;;;2.37;36.36;100345.20;432644;1271;97484;-42
2022/03/11 11:38:31;;;;;;;12.20;6.10;;;;;;;2.39;35.68;100332.75;432612;1271;97562;-41
2022/03/11 11:49:01;;;;;;;11.90;5.30;;;;;;;2.54;35.39;100333.14;432336;1271;111072;-40
2022/03/11 11:59:11;;;;;;;7.50;3.90;;;;;;;2.78;33.98;100315.77;432576;1271;107724;-40
2022/03/11 12:19:54;;;;;;;11.80;5.30;;;;;;;2.96;32.94;100297.60;432521;1271;98579;-41
2022/03/11 12:30:10;;;;;;;9.40;4.50;;;;;;;3.09;33.77;100300.73;432572;1271;97834;-43
2022/03/11 12:40:19;;;;;;;10.80;4.70;;;;;;;3.03;33.55;100291.04;432850;1271;111424;-42
2022/03/11 13:00:36;;;;;;;9.40;5.20;;;;;;;2.97;32.81;100279.36;432803;1271;108842;-40
2022/03/11 13:10:43;;;;;;;10.70;4.30;;;;;;;2.95;31.96;100273.88;432529;1271;96625;-40
2022/03/11 13:20:50;;;;;;;18.40;5.70;;;;;;;2.97;32.44;100267.73;432595;1270;109971;-40
2022/03/11 13:30:55;;;;;;;9.50;4.20;;;;;;;3.07;32.63;100254.61;432722;1271;108901;-39
2022/03/11 13:41:03;;;;;;;16.50;5.00;;;;;;;3.11;32.04;100247.48;432612;1271;97913;-41
2022/03/11 13:51:08;;;;;;;5.30;3.50;;;;;;;2.89;31.42;100245.45;432572;1271;96646;-41
2022/03/11 14:01:16;;;;;;;24.30;5.00;;;;;;;2.91;31.67;100236.23;432526;1271;111018;-40
2022/03/11 14:31:37;;;;;;;14.50;7.10;;;;;;;2.88;30.91;100223.64;432462;1271;97539;-40
2022/03/11 14:41:44;;;;;;;12.10;4.80;;;;;;;2.76;31.06;100216.57;432571;1270;111154;-41
2022/03/11 14:51:51;;;;;;;15.70;6.00;;;;;;;2.75;31.47;100205.65;432529;1271;108717;-40
2022/03/11 15:01:58;;;;;;;15.90;6.00;;;;;;;2.73;31.56;100193.18;432702;1271;109524;-39
2022/03/11 15:12:04;;;;;;;13.50;4.90;;;;;;;2.66;31.70;100189.46;432886;1270;97897;-41
2022/03/11 15:22:12;;;;;;;11.60;5.10;;;;;;;2.62;32.45;100180.58;432637;1271;111053;-42
2022/03/11 15:32:19;;;;;;;12.50;5.20;;;;;;;2.52;32.12;100171.20;432656;1270;109876;-40
2022/03/11 15:42:27;;;;;;;10.20;5.90;;;;;;;2.35;31.88;100162.73;432525;1271;109045;-41
2022/03/11 15:52:39;;;;;;;13.90;5.10;;;;;;;2.13;32.02;100149.77;432595;1271;96672;-39
2022/03/11 16:12:56;;;;;;;11.30;4.60;;;;;;;1.73;32.31;100155.02;432720;1271;108991;-42
2022/03/11 16:23:04;;;;;;;21.30;6.40;;;;;;;1.50;32.56;100149.11;432580;1271;108982;-40
2022/03/11 16:43:19;;;;;;;79.30;21.60;;;;;;;0.96;33.54;100160.52;432473;1271;111069;-41
2022/03/11 16:53:26;;;;;;;77.30;21.30;;;;;;;0.70;33.70;100163.32;432540;1271;108764;-40
2022/03/11 17:03:34;;;;;;;61.70;21.90;;;;;;;0.42;34.18;100162.73;432584;1271;108919;-40
2022/03/11 17:13:42;;;;;;;35.40;13.90;;;;;;;0.15;34.53;100164.04;432579;1271;97573;-42
2022/03/11 17:23:49;;;;;;;46.20;16.40;;;;;;;-0.07;34.74;100164.14;432694;1271;111167;-41
2022/03/11 17:33:57;;;;;;;54.30;16.10;;;;;;;-0.27;34.94;100173.14;432689;1271;108793;-40
2022/03/11 17:44:05;;;;;;;113.40;31.60;;;;;;;-0.44;35.26;100174.88;432542;1271;108740;-39
2022/03/11 18:04:19;;;;;;;112.40;31.30;;;;;;;-0.75;35.72;100179.05;432525;1271;110526;-41
2022/03/11 18:14:27;;;;;;;77.60;28.50;;;;;;;-0.91;36.13;100181.04;432488;1271;108786;-41
2022/03/11 18:24:35;;;;;;;61.10;20.70;;;;;;;-1.07;36.47;100182.39;432526;1271;97044;-40
2022/03/11 18:44:48;;;;;;;49.30;21.10;;;;;;;-1.30;36.67;100179.65;432549;1271;108846;-40
2022/03/11 18:54:55;;;;;;;51.00;19.30;;;;;;;-1.45;37.03;100179.39;432684;1271;96933;-41
2022/03/11 19:15:10;;;;;;;52.40;19.50;;;;;;;-1.67;37.51;100182.10;432388;1271;97933;-40
2022/03/11 19:25:17;;;;;;;51.70;23.40;;;;;;;-1.75;37.40;100175.30;432502;1271;111265;-42
2022/03/11 19:35:25;;;;;;;53.30;19.10;;;;;;;-1.85;37.90;100174.29;432516;1271;107636;-40
2022/03/11 19:45:32;;;;;;;70.40;22.50;;;;;;;-1.95;38.20;100169.01;432616;1271;97586;-41
2022/03/11 19:55:42;;;;;;;107.60;32.10;;;;;;;-2.02;38.60;100171.61;432428;1271;110791;-40
2022/03/11 20:05:50;;;;;;;109.30;36.00;;;;;;;-2.14;38.92;100175.18;432338;1271;108911;-44
2022/03/11 20:15:57;;;;;;;72.10;26.30;;;;;;;-2.23;39.07;100176.04;432388;1271;96597;-41
2022/03/11 20:26:04;;;;;;;64.80;21.00;;;;;;;-2.27;39.36;100169.56;432525;1271;111080;-40
2022/03/11 20:36:12;;;;;;;89.00;26.60;;;;;;;-2.36;39.62;100162.99;432555;1271;108684;-40
2022/03/11 20:46:19;;;;;;;68.20;23.30;;;;;;;-2.47;39.70;100167.59;432502;1271;96673;-43
2022/03/11 20:56:26;;;;;;;63.40;23.50;;;;;;;-2.56;40.17;100160.98;432643;1271;108834;-40
2022/03/11 21:06:34;;;;;;;81.30;27.70;;;;;;;-2.63;40.27;100156.98;428379;1270;5448662;-40
2022/03/11 21:16:41;;;;;;;67.90;22.10;;;;;;;-2.72;40.78;100156.73;432591;1271;111170;-40
2022/03/11 21:26:48;;;;;;;81.80;27.40;;;;;;;-2.81;41.10;100157.36;432492;1271;108829;-43
2022/03/11 21:36:56;;;;;;;75.30;24.20;;;;;;;-2.91;41.14;100154.46;432463;1271;97920;-41
2022/03/11 21:47:00;;;;;;;86.40;29.00;;;;;;;-3.01;41.39;100154.31;432720;1271;111219;-43
2022/03/11 21:57:10;;;;;;;60.60;21.70;;;;;;;-3.07;41.73;100156.92;432389;1271;97952;-42
2022/03/11 22:07:17;;;;;;;53.50;20.10;;;;;;;-3.13;42.04;100161.63;432523;1271;97936;-40
2022/03/11 22:17:24;;;;;;;56.40;20.90;;;;;;;-3.22;42.24;100155.05;432375;1271;111191;-40
2022/03/11 22:27:30;;;;;;;63.80;22.00;;;;;;;-3.32;42.58;100148.30;432412;1271;107773;-42
2022/03/11 22:37:37;;;;;;;62.30;21.60;;;;;;;-3.38;42.82;100145.45;432471;1271;97509;-40
2022/03/11 22:57:57;;;;;;;69.20;22.60;;;;;;;-3.46;42.93;100145.45;432584;1271;108807;-43
2022/03/11 23:18:28;;;;;;;54.50;17.30;;;;;;;-3.58;43.44;100153.16;432432;1271;111115;-40
2022/03/11 23:28:36;;;;;;;50.30;17.80;;;;;;;-3.75;43.56;100152.75;432394;1270;108911;-41
2022/03/11 23:38:45;;;;;;;44.40;16.10;;;;;;;-3.87;43.91;100149.23;432495;1271;97505;-39
2022/03/11 23:48:52;;;;;;;46.00;16.20;;;;;;;-3.92;43.98;100154.61;432509;1271;108675;-42
2022/03/11 23:58:59;;;;;;;40.80;14.20;;;;;;;-3.96;44.43;100147.27;432659;1271;98027;-39
